sensor_id;sensor_type;location;lat;lon;timestamp;temperature;humidity
33955;DHT22;20233;50.804;7.126;2022-10-31T00:02:07;13.80;99.90
33955;DHT22;20233;50.804;7.126;2022-10-31T00:04:33;13.80;99.90
33955;DHT22;20233;50.804;7.126;2022-10-31T00:06:58;13.70;99.90
33955;DHT22;20233;50.804;7.126;2022-10-31T00:09:24;13.70;99.90
33955;DHT22;20233;50.804;7.126;2022-10-31T00:11:49;13.70;99.90
33955;DHT22;20233;50.804;7.126;2022-10-31T00:14:15;13.70;99.90
33955;DHT22;20233;50.804;7.126;2022-10-31T00:16:40;13.70;99.90
33955;DHT22;20233;50.804;7.126;2022-10-31T00:19:07;13.70;99.90
33955;DHT22;20233;50.804;7.126;2022-10-31T00:21:33;13.60;99.90
33955;DHT22;20233;50.804;7.126;2022-10-31T00:24:00;13.70;99.90
33955;DHT22;20233;50.804;7.126;2022-10-31T00:26:30;13.70;99.90
33955;DHT22;20233;50.804;7.126;2022-10-31T00:28:57;13.70;99.90
33955;DHT22;20233;50.804;7.126;2022-10-31T00:31:23;13.60;99.90
33955;DHT22;20233;50.804;7.126;2022-10-31T00:33:48;13.60;99.90
33955;DHT22;20233;50.804;7.126;2022-10-31T00:36:17;13.60;99.90
33955;DHT22;20233;50.804;7.126;2022-10-31T00:38:43;13.60;99.90
33955;DHT22;20233;50.804;7.126;2022-10-31T00:41:10;13.50;99.90
33955;DHT22;20233;50.804;7.126;2022-10-31T00:43:36;13.50;99.90
33955;DHT22;20233;50.804;7.126;2022-10-31T00:46:01;13.60;99.90
33955;DHT22;20233;50.804;7.126;2022-10-31T00:48:28;13.50;99.90
33955;DHT22;20233;50.804;7.126;2022-10-31T00:50:53;13.50;99.90
33955;DHT22;20233;50.804;7.126;2022-10-31T00:53:19;13.50;99.90
33955;DHT22;20233;50.804;7.126;2022-10-31T00:55:44;13.50;99.90
33955;DHT22;20233;50.804;7.126;2022-10-31T00:58:10;13.60;99.90
33955;DHT22;20233;50.804;7.126;2022-10-31T01:00:35;13.50;99.90
33955;DHT22;20233;50.804;7.126;2022-10-31T01:03:01;13.40;99.90
33955;DHT22;20233;50.804;7.126;2022-10-31T01:05:26;13.40;99.90
33955;DHT22;20233;50.804;7.126;2022-10-31T01:07:52;13.40;99.90
33955;DHT22;20233;50.804;7.126;2022-10-31T01:10:17;13.40;99.90
33955;DHT22;20233;50.804;7.126;2022-10-31T01:12:46;13.30;99.90
33955;DHT22;20233;50.804;7.126;2022-10-31T01:15:13;13.40;99.90
33955;DHT22;20233;50.804;7.126;2022-10-31T01:17:39;13.40;99.90
33955;DHT22;20233;50.804;7.126;2022-10-31T01:20:12;13.40;99.90
33955;DHT22;20233;50.804;7.126;2022-10-31T01:22:38;13.40;99.90
33955;DHT22;20233;50.804;7.126;2022-10-31T01:25:04;13.40;99.90
33955;DHT22;20233;50.804;7.126;2022-10-31T01:27:31;13.40;99.90
33955;DHT22;20233;50.804;7.126;2022-10-31T01:29:57;13.40;99.90
33955;DHT22;20233;50.804;7.126;2022-10-31T01:32:22;13.40;99.90
33955;DHT22;20233;50.804;7.126;2022-10-31T01:34:48;13.40;99.90
33955;DHT22;20233;50.804;7.126;2022-10-31T01:37:14;13.40;99.90
33955;DHT22;20233;50.804;7.126;2022-10-31T01:39:39;13.40;99.90
33955;DHT22;20233;50.804;7.126;2022-10-31T01:42:05;13.30;99.90
33955;DHT22;20233;50.804;7.126;2022-10-31T01:47:11;13.40;99.90
33955;DHT22;20233;50.804;7.126;2022-10-31T01:49:49;13.30;99.90
33955;DHT22;20233;50.804;7.126;2022-10-31T01:52:36;13.40;99.90
33955;DHT22;20233;50.804;7.126;2022-10-31T01:55:07;13.40;99.90
33955;DHT22;20233;50.804;7.126;2022-10-31T01:57:35;13.40;99.90
33955;DHT22;20233;50.804;7.126;2022-10-31T02:00:08;13.40;99.90
33955;DHT22;20233;50.804;7.126;2022-10-31T02:02:34;13.40;99.90
33955;DHT22;20233;50.804;7.126;2022-10-31T02:05:05;13.40;99.90
33955;DHT22;20233;50.804;7.126;2022-10-31T02:07:39;13.40;99.90
33955;DHT22;20233;50.804;7.126;2022-10-31T02:10:07;13.30;99.90
33955;DHT22;20233;50.804;7.126;2022-10-31T02:12:34;13.30;99.90
33955;DHT22;20233;50.804;7.126;2022-10-31T02:15:01;13.40;99.90
33955;DHT22;20233;50.804;7.126;2022-10-31T02:17:29;13.40;99.90
33955;DHT22;20233;50.804;7.126;2022-10-31T02:22:40;13.30;99.90
33955;DHT22;20233;50.804;7.126;2022-10-31T02:39:26;13.30;99.90
33955;DHT22;20233;50.804;7.126;2022-10-31T02:42:59;13.20;99.90
33955;DHT22;20233;50.804;7.126;2022-10-31T02:47:36;13.20;99.90
33955;DHT22;20233;50.804;7.126;2022-10-31T02:50:26;13.10;99.90
33955;DHT22;20233;50.804;7.126;2022-10-31T02:52:52;13.10;99.90
33955;DHT22;20233;50.804;7.126;2022-10-31T02:57:56;13.10;99.90
33955;DHT22;20233;50.804;7.126;2022-10-31T03:00:22;13.10;99.90
33955;DHT22;20233;50.804;7.126;2022-10-31T03:06:00;13.10;99.90
33955;DHT22;20233;50.804;7.126;2022-10-31T03:08:36;13.20;99.90
33955;DHT22;20233;50.804;7.126;2022-10-31T03:11:07;13.10;99.90
33955;DHT22;20233;50.804;7.126;2022-10-31T03:13:49;13.00;99.90
33955;DHT22;20233;50.804;7.126;2022-10-31T03:16:16;13.10;99.90
33955;DHT22;20233;50.804;7.126;2022-10-31T03:18:59;13.10;99.90
33955;DHT22;20233;50.804;7.126;2022-10-31T03:21:46;13.10;99.90
33955;DHT22;20233;50.804;7.126;2022-10-31T03:24:13;13.10;99.90
33955;DHT22;20233;50.804;7.126;2022-10-31T03:26:44;13.10;99.90
33955;DHT22;20233;50.804;7.126;2022-10-31T03:29:15;13.00;99.90
33955;DHT22;20233;50.804;7.126;2022-10-31T03:31:49;13.00;99.90
33955;DHT22;20233;50.804;7.126;2022-10-31T03:34:16;13.00;99.90
33955;DHT22;20233;50.804;7.126;2022-10-31T03:36:45;13.00;99.90
33955;DHT22;20233;50.804;7.126;2022-10-31T03:39:14;13.00;99.90
33955;DHT22;20233;50.804;7.126;2022-10-31T03:41:43;13.00;99.90
33955;DHT22;20233;50.804;7.126;2022-10-31T03:44:15;12.90;99.90
33955;DHT22;20233;50.804;7.126;2022-10-31T03:46:42;12.90;99.90
33955;DHT22;20233;50.804;7.126;2022-10-31T03:49:08;12.90;99.90
33955;DHT22;20233;50.804;7.126;2022-10-31T03:56:57;12.90;99.90
33955;DHT22;20233;50.804;7.126;2022-10-31T03:59:28;12.90;99.90
33955;DHT22;20233;50.804;7.126;2022-10-31T04:01:59;12.90;99.90
33955;DHT22;20233;50.804;7.126;2022-10-31T04:04:27;12.90;99.90
33955;DHT22;20233;50.804;7.126;2022-10-31T04:06:55;12.90;99.90
33955;DHT22;20233;50.804;7.126;2022-10-31T04:09:22;12.90;99.90
33955;DHT22;20233;50.804;7.126;2022-10-31T04:11:51;12.90;99.90
33955;DHT22;20233;50.804;7.126;2022-10-31T04:14:18;12.90;99.90
33955;DHT22;20233;50.804;7.126;2022-10-31T04:16:44;12.90;99.90
33955;DHT22;20233;50.804;7.126;2022-10-31T04:19:10;12.90;99.90
33955;DHT22;20233;50.804;7.126;2022-10-31T04:21:36;12.80;99.90
33955;DHT22;20233;50.804;7.126;2022-10-31T04:24:02;12.80;99.90
33955;DHT22;20233;50.804;7.126;2022-10-31T04:26:27;12.80;99.90
33955;DHT22;20233;50.804;7.126;2022-10-31T04:28:53;12.80;99.90
33955;DHT22;20233;50.804;7.126;2022-10-31T04:31:18;12.80;99.90
33955;DHT22;20233;50.804;7.126;2022-10-31T04:33:44;12.70;99.90
33955;DHT22;20233;50.804;7.126;2022-10-31T04:36:10;12.80;99.90
33955;DHT22;20233;50.804;7.126;2022-10-31T04:38:35;12.70;99.90
33955;DHT22;20233;50.804;7.126;2022-10-31T04:41:01;12.70;99.90
33955;DHT22;20233;50.804;7.126;2022-10-31T04:43:26;12.70;99.90
33955;DHT22;20233;50.804;7.126;2022-10-31T04:45:52;12.70;99.90
33955;DHT22;20233;50.804;7.126;2022-10-31T04:48:17;12.70;99.90
33955;DHT22;20233;50.804;7.126;2022-10-31T04:50:43;12.70;99.90
33955;DHT22;20233;50.804;7.126;2022-10-31T04:53:08;12.70;99.90
33955;DHT22;20233;50.804;7.126;2022-10-31T04:55:35;12.70;99.90
33955;DHT22;20233;50.804;7.126;2022-10-31T04:58:01;12.70;99.90
33955;DHT22;20233;50.804;7.126;2022-10-31T05:00:27;12.70;99.90
33955;DHT22;20233;50.804;7.126;2022-10-31T05:02:55;12.60;99.90
33955;DHT22;20233;50.804;7.126;2022-10-31T05:05:23;12.60;99.90
33955;DHT22;20233;50.804;7.126;2022-10-31T05:07:50;12.60;99.90
33955;DHT22;20233;50.804;7.126;2022-10-31T05:10:20;12.60;99.90
33955;DHT22;20233;50.804;7.126;2022-10-31T05:12:51;12.50;99.90
33955;DHT22;20233;50.804;7.126;2022-10-31T05:15:17;12.50;99.90
33955;DHT22;20233;50.804;7.126;2022-10-31T05:17:43;12.50;99.90
33955;DHT22;20233;50.804;7.126;2022-10-31T05:20:10;12.50;99.90
33955;DHT22;20233;50.804;7.126;2022-10-31T05:22:36;12.50;99.90
33955;DHT22;20233;50.804;7.126;2022-10-31T05:25:02;12.50;99.90
33955;DHT22;20233;50.804;7.126;2022-10-31T05:27:27;12.50;99.90
33955;DHT22;20233;50.804;7.126;2022-10-31T05:29:53;12.50;99.90
33955;DHT22;20233;50.804;7.126;2022-10-31T05:32:18;12.50;99.90
33955;DHT22;20233;50.804;7.126;2022-10-31T05:34:44;12.50;99.90
33955;DHT22;20233;50.804;7.126;2022-10-31T05:37:09;12.50;99.90
33955;DHT22;20233;50.804;7.126;2022-10-31T05:39:35;12.40;99.90
33955;DHT22;20233;50.804;7.126;2022-10-31T05:42:01;12.40;99.90
33955;DHT22;20233;50.804;7.126;2022-10-31T05:44:26;12.40;99.90
33955;DHT22;20233;50.804;7.126;2022-10-31T05:46:52;12.50;99.90
33955;DHT22;20233;50.804;7.126;2022-10-31T05:49:17;12.50;99.90
33955;DHT22;20233;50.804;7.126;2022-10-31T05:51:43;12.50;99.90
33955;DHT22;20233;50.804;7.126;2022-10-31T05:54:08;12.40;99.90
33955;DHT22;20233;50.804;7.126;2022-10-31T05:56:34;12.40;99.90
33955;DHT22;20233;50.804;7.126;2022-10-31T05:58:59;12.40;99.90
33955;DHT22;20233;50.804;7.126;2022-10-31T06:01:25;12.40;99.90
33955;DHT22;20233;50.804;7.126;2022-10-31T06:03:50;12.40;99.90
33955;DHT22;20233;50.804;7.126;2022-10-31T06:06:16;12.30;99.90
33955;DHT22;20233;50.804;7.126;2022-10-31T06:08:41;12.30;99.90
33955;DHT22;20233;50.804;7.126;2022-10-31T06:11:07;12.30;99.90
33955;DHT22;20233;50.804;7.126;2022-10-31T06:13:33;12.30;99.90
33955;DHT22;20233;50.804;7.126;2022-10-31T06:15:59;12.30;99.90
33955;DHT22;20233;50.804;7.126;2022-10-31T06:18:27;12.40;99.90
33955;DHT22;20233;50.804;7.126;2022-10-31T06:20:52;12.40;99.90
33955;DHT22;20233;50.804;7.126;2022-10-31T06:23:18;12.40;99.90
33955;DHT22;20233;50.804;7.126;2022-10-31T06:25:48;12.40;99.90
33955;DHT22;20233;50.804;7.126;2022-10-31T06:28:14;12.30;99.90
33955;DHT22;20233;50.804;7.126;2022-10-31T06:30:40;12.40;99.90
33955;DHT22;20233;50.804;7.126;2022-10-31T06:33:05;12.40;99.90
33955;DHT22;20233;50.804;7.126;2022-10-31T06:35:31;12.40;99.90
33955;DHT22;20233;50.804;7.126;2022-10-31T06:37:57;12.40;99.90
33955;DHT22;20233;50.804;7.126;2022-10-31T06:40:23;12.40;99.90
33955;DHT22;20233;50.804;7.126;2022-10-31T06:42:57;12.30;99.90
33955;DHT22;20233;50.804;7.126;2022-10-31T06:45:22;12.30;99.90
33955;DHT22;20233;50.804;7.126;2022-10-31T06:47:52;12.30;99.90
33955;DHT22;20233;50.804;7.126;2022-10-31T06:50:19;12.30;99.90
33955;DHT22;20233;50.804;7.126;2022-10-31T06:52:53;12.30;99.90
33955;DHT22;20233;50.804;7.126;2022-10-31T06:55:19;12.40;99.90
33955;DHT22;20233;50.804;7.126;2022-10-31T06:58:01;12.40;99.90
33955;DHT22;20233;50.804;7.126;2022-10-31T07:00:28;12.40;99.90
33955;DHT22;20233;50.804;7.126;2022-10-31T07:03:04;12.40;99.90
33955;DHT22;20233;50.804;7.126;2022-10-31T07:05:31;12.50;99.90
33955;DHT22;20233;50.804;7.126;2022-10-31T07:08:03;12.50;99.90
33955;DHT22;20233;50.804;7.126;2022-10-31T07:10:31;12.60;99.90
33955;DHT22;20233;50.804;7.126;2022-10-31T07:12:59;12.60;99.90
33955;DHT22;20233;50.804;7.126;2022-10-31T07:15:27;12.60;99.90
33955;DHT22;20233;50.804;7.126;2022-10-31T07:17:53;12.60;99.90
33955;DHT22;20233;50.804;7.126;2022-10-31T07:20:19;12.60;99.90
33955;DHT22;20233;50.804;7.126;2022-10-31T07:22:44;12.60;99.90
33955;DHT22;20233;50.804;7.126;2022-10-31T07:25:10;12.70;99.90
33955;DHT22;20233;50.804;7.126;2022-10-31T07:27:38;12.70;99.90
33955;DHT22;20233;50.804;7.126;2022-10-31T07:30:04;12.70;99.90
33955;DHT22;20233;50.804;7.126;2022-10-31T07:32:41;12.70;99.90
33955;DHT22;20233;50.804;7.126;2022-10-31T07:35:10;12.70;99.90
33955;DHT22;20233;50.804;7.126;2022-10-31T07:37:36;12.80;99.90
33955;DHT22;20233;50.804;7.126;2022-10-31T07:40:03;12.80;99.90
33955;DHT22;20233;50.804;7.126;2022-10-31T07:42:28;12.70;99.90
33955;DHT22;20233;50.804;7.126;2022-10-31T07:44:54;12.80;99.90
33955;DHT22;20233;50.804;7.126;2022-10-31T07:47:19;12.90;99.90
33955;DHT22;20233;50.804;7.126;2022-10-31T07:49:45;12.90;99.90
33955;DHT22;20233;50.804;7.126;2022-10-31T07:52:10;12.90;99.90
33955;DHT22;20233;50.804;7.126;2022-10-31T07:54:36;12.90;99.90
33955;DHT22;20233;50.804;7.126;2022-10-31T07:57:01;13.00;99.90
33955;DHT22;20233;50.804;7.126;2022-10-31T07:59:27;13.00;99.90
33955;DHT22;20233;50.804;7.126;2022-10-31T08:01:53;13.00;99.90
33955;DHT22;20233;50.804;7.126;2022-10-31T08:04:19;13.00;99.90
33955;DHT22;20233;50.804;7.126;2022-10-31T08:06:44;13.10;99.90
33955;DHT22;20233;50.804;7.126;2022-10-31T08:09:10;13.10;99.90
33955;DHT22;20233;50.804;7.126;2022-10-31T08:11:35;13.10;99.90
33955;DHT22;20233;50.804;7.126;2022-10-31T08:14:01;13.20;99.90
33955;DHT22;20233;50.804;7.126;2022-10-31T08:16:27;13.30;99.90
33955;DHT22;20233;50.804;7.126;2022-10-31T08:18:52;13.30;99.90
33955;DHT22;20233;50.804;7.126;2022-10-31T08:21:21;13.40;99.90
33955;DHT22;20233;50.804;7.126;2022-10-31T08:23:46;13.40;99.90
33955;DHT22;20233;50.804;7.126;2022-10-31T08:26:12;13.50;99.90
33955;DHT22;20233;50.804;7.126;2022-10-31T08:28:38;13.50;99.90
33955;DHT22;20233;50.804;7.126;2022-10-31T08:31:04;13.50;99.90
33955;DHT22;20233;50.804;7.126;2022-10-31T08:33:31;13.60;99.90
33955;DHT22;20233;50.804;7.126;2022-10-31T08:35:59;13.60;99.90
33955;DHT22;20233;50.804;7.126;2022-10-31T08:38:26;13.70;99.90
33955;DHT22;20233;50.804;7.126;2022-10-31T08:40:51;13.70;99.90
33955;DHT22;20233;50.804;7.126;2022-10-31T08:43:18;13.80;99.90
33955;DHT22;20233;50.804;7.126;2022-10-31T08:45:47;13.80;99.90
33955;DHT22;20233;50.804;7.126;2022-10-31T08:48:14;13.80;99.90
33955;DHT22;20233;50.804;7.126;2022-10-31T08:50:41;13.90;99.90
33955;DHT22;20233;50.804;7.126;2022-10-31T08:53:10;13.80;99.90
33955;DHT22;20233;50.804;7.126;2022-10-31T08:55:38;13.90;99.90
33955;DHT22;20233;50.804;7.126;2022-10-31T08:58:05;14.00;99.90
33955;DHT22;20233;50.804;7.126;2022-10-31T09:00:32;14.00;99.90
33955;DHT22;20233;50.804;7.126;2022-10-31T09:03:00;14.10;99.90
33955;DHT22;20233;50.804;7.126;2022-10-31T09:05:26;14.20;99.90
33955;DHT22;20233;50.804;7.126;2022-10-31T09:07:59;14.20;99.90
33955;DHT22;20233;50.804;7.126;2022-10-31T09:12:59;14.20;99.90
33955;DHT22;20233;50.804;7.126;2022-10-31T09:15:26;14.20;99.90
33955;DHT22;20233;50.804;7.126;2022-10-31T09:17:53;14.30;99.90
33955;DHT22;20233;50.804;7.126;2022-10-31T09:20:19;14.40;99.90
33955;DHT22;20233;50.804;7.126;2022-10-31T09:22:45;14.50;99.90
33955;DHT22;20233;50.804;7.126;2022-10-31T09:25:11;14.50;99.90
33955;DHT22;20233;50.804;7.126;2022-10-31T09:27:36;14.60;99.90
33955;DHT22;20233;50.804;7.126;2022-10-31T09:30:03;14.70;99.90
33955;DHT22;20233;50.804;7.126;2022-10-31T09:32:29;14.70;99.90
33955;DHT22;20233;50.804;7.126;2022-10-31T09:34:54;14.80;99.90
33955;DHT22;20233;50.804;7.126;2022-10-31T09:37:20;14.80;99.90
33955;DHT22;20233;50.804;7.126;2022-10-31T09:39:45;14.90;99.90
33955;DHT22;20233;50.804;7.126;2022-10-31T09:42:26;14.90;99.90
33955;DHT22;20233;50.804;7.126;2022-10-31T09:45:17;15.00;99.90
33955;DHT22;20233;50.804;7.126;2022-10-31T09:48:05;15.10;99.90
33955;DHT22;20233;50.804;7.126;2022-10-31T09:50:52;15.30;99.90
33955;DHT22;20233;50.804;7.126;2022-10-31T09:55:48;15.50;99.90
33955;DHT22;20233;50.804;7.126;2022-10-31T09:58:24;15.60;99.90
33955;DHT22;20233;50.804;7.126;2022-10-31T10:00:52;15.60;99.90
33955;DHT22;20233;50.804;7.126;2022-10-31T10:03:31;15.70;99.90
33955;DHT22;20233;50.804;7.126;2022-10-31T10:06:01;15.80;99.90
33955;DHT22;20233;50.804;7.126;2022-10-31T10:08:32;15.80;99.90
33955;DHT22;20233;50.804;7.126;2022-10-31T10:14:16;15.90;99.90
33955;DHT22;20233;50.804;7.126;2022-10-31T10:27:47;16.20;99.90
33955;DHT22;20233;50.804;7.126;2022-10-31T10:35:53;16.40;99.90
33955;DHT22;20233;50.804;7.126;2022-10-31T10:41:18;16.50;99.90
33955;DHT22;20233;50.804;7.126;2022-10-31T10:43:44;16.50;99.90
33955;DHT22;20233;50.804;7.126;2022-10-31T10:49:19;16.60;99.90
33955;DHT22;20233;50.804;7.126;2022-10-31T10:57:19;16.80;99.90
33955;DHT22;20233;50.804;7.126;2022-10-31T10:59:47;16.80;99.90
33955;DHT22;20233;50.804;7.126;2022-10-31T11:04:43;17.00;99.90
33955;DHT22;20233;50.804;7.126;2022-10-31T11:07:11;17.00;99.90
33955;DHT22;20233;50.804;7.126;2022-10-31T11:09:37;17.20;99.90
33955;DHT22;20233;50.804;7.126;2022-10-31T11:12:30;17.20;99.90
33955;DHT22;20233;50.804;7.126;2022-10-31T11:14:59;17.40;99.90
33955;DHT22;20233;50.804;7.126;2022-10-31T11:17:32;17.50;99.90
33955;DHT22;20233;50.804;7.126;2022-10-31T11:20:05;17.60;99.90
33955;DHT22;20233;50.804;7.126;2022-10-31T11:22:31;17.60;99.90
33955;DHT22;20233;50.804;7.126;2022-10-31T11:24:57;17.70;99.90
33955;DHT22;20233;50.804;7.126;2022-10-31T11:27:25;17.90;99.90
33955;DHT22;20233;50.804;7.126;2022-10-31T11:29:51;18.20;99.90
33955;DHT22;20233;50.804;7.126;2022-10-31T11:32:22;18.50;99.90
33955;DHT22;20233;50.804;7.126;2022-10-31T11:34:58;18.90;99.90
33955;DHT22;20233;50.804;7.126;2022-10-31T11:37:33;19.30;99.90
33955;DHT22;20233;50.804;7.126;2022-10-31T11:40:05;19.50;99.90
33955;DHT22;20233;50.804;7.126;2022-10-31T11:42:39;19.60;99.90
33955;DHT22;20233;50.804;7.126;2022-10-31T11:45:17;19.60;99.90
33955;DHT22;20233;50.804;7.126;2022-10-31T11:47:46;19.50;99.90
33955;DHT22;20233;50.804;7.126;2022-10-31T11:50:19;19.50;99.90
33955;DHT22;20233;50.804;7.126;2022-10-31T11:57:51;19.30;99.90
33955;DHT22;20233;50.804;7.126;2022-10-31T12:03:11;19.20;99.90
33955;DHT22;20233;50.804;7.126;2022-10-31T12:05:39;19.20;99.90
33955;DHT22;20233;50.804;7.126;2022-10-31T12:08:12;19.10;99.90
33955;DHT22;20233;50.804;7.126;2022-10-31T12:10:48;19.10;99.90
33955;DHT22;20233;50.804;7.126;2022-10-31T12:13:37;19.10;99.90
33955;DHT22;20233;50.804;7.126;2022-10-31T12:16:17;19.00;99.90
33955;DHT22;20233;50.804;7.126;2022-10-31T12:18:58;19.10;99.90
33955;DHT22;20233;50.804;7.126;2022-10-31T12:21:34;19.10;99.90
33955;DHT22;20233;50.804;7.126;2022-10-31T12:24:12;19.10;99.90
33955;DHT22;20233;50.804;7.126;2022-10-31T12:32:38;19.30;99.90
33955;DHT22;20233;50.804;7.126;2022-10-31T12:35:26;19.30;99.90
33955;DHT22;20233;50.804;7.126;2022-10-31T12:43:28;19.50;99.90
33955;DHT22;20233;50.804;7.126;2022-10-31T12:45:58;19.50;99.90
33955;DHT22;20233;50.804;7.126;2022-10-31T12:48:41;19.50;99.90
33955;DHT22;20233;50.804;7.126;2022-10-31T12:51:21;19.50;99.90
33955;DHT22;20233;50.804;7.126;2022-10-31T12:56:57;19.60;99.90
33955;DHT22;20233;50.804;7.126;2022-10-31T12:59:48;19.50;99.90
33955;DHT22;20233;50.804;7.126;2022-10-31T13:05:30;19.50;99.90
33955;DHT22;20233;50.804;7.126;2022-10-31T13:08:04;19.60;99.90
33955;DHT22;20233;50.804;7.126;2022-10-31T13:13:48;19.60;99.90
33955;DHT22;20233;50.804;7.126;2022-10-31T13:16:16;19.60;99.90
33955;DHT22;20233;50.804;7.126;2022-10-31T13:19:25;19.60;99.90
33955;DHT22;20233;50.804;7.126;2022-10-31T13:22:25;19.60;99.90
33955;DHT22;20233;50.804;7.126;2022-10-31T13:25:03;19.60;99.90
33955;DHT22;20233;50.804;7.126;2022-10-31T13:30:15;19.70;99.90
33955;DHT22;20233;50.804;7.126;2022-10-31T13:32:47;19.80;99.90
33955;DHT22;20233;50.804;7.126;2022-10-31T13:35:30;19.70;99.90
33955;DHT22;20233;50.804;7.126;2022-10-31T13:38:10;19.70;99.90
33955;DHT22;20233;50.804;7.126;2022-10-31T13:44:13;19.70;99.90
33955;DHT22;20233;50.804;7.126;2022-10-31T13:46:41;19.70;99.90
33955;DHT22;20233;50.804;7.126;2022-10-31T13:57:17;19.60;99.90
33955;DHT22;20233;50.804;7.126;2022-10-31T13:59:50;19.60;99.90
33955;DHT22;20233;50.804;7.126;2022-10-31T14:02:21;19.60;99.90
33955;DHT22;20233;50.804;7.126;2022-10-31T14:04:52;19.50;99.90
33955;DHT22;20233;50.804;7.126;2022-10-31T14:07:23;19.50;99.90
33955;DHT22;20233;50.804;7.126;2022-10-31T14:10:02;19.50;99.90
33955;DHT22;20233;50.804;7.126;2022-10-31T14:12:38;19.60;99.90
33955;DHT22;20233;50.804;7.126;2022-10-31T14:22:39;19.50;99.90
33955;DHT22;20233;50.804;7.126;2022-10-31T14:25:31;19.40;99.90
33955;DHT22;20233;50.804;7.126;2022-10-31T14:28:00;19.50;99.90
33955;DHT22;20233;50.804;7.126;2022-10-31T14:30:29;19.50;99.90
33955;DHT22;20233;50.804;7.126;2022-10-31T14:32:58;19.50;99.90
33955;DHT22;20233;50.804;7.126;2022-10-31T14:35:43;19.50;99.90
33955;DHT22;20233;50.804;7.126;2022-10-31T14:43:57;19.40;99.90
33955;DHT22;20233;50.804;7.126;2022-10-31T14:51:51;19.30;99.90
33955;DHT22;20233;50.804;7.126;2022-10-31T14:54:38;19.30;99.90
33955;DHT22;20233;50.804;7.126;2022-10-31T14:57:13;19.20;99.90
33955;DHT22;20233;50.804;7.126;2022-10-31T14:59:43;19.30;99.90
33955;DHT22;20233;50.804;7.126;2022-10-31T15:02:30;19.30;99.90
33955;DHT22;20233;50.804;7.126;2022-10-31T15:05:00;19.30;99.90
33955;DHT22;20233;50.804;7.126;2022-10-31T15:07:27;19.30;99.90
33955;DHT22;20233;50.804;7.126;2022-10-31T15:10:02;19.30;99.90
33955;DHT22;20233;50.804;7.126;2022-10-31T15:12:33;19.10;99.90
33955;DHT22;20233;50.804;7.126;2022-10-31T15:15:13;19.10;99.90
33955;DHT22;20233;50.804;7.126;2022-10-31T15:17:44;19.10;99.90
33955;DHT22;20233;50.804;7.126;2022-10-31T15:20:22;19.20;99.90
33955;DHT22;20233;50.804;7.126;2022-10-31T15:22:48;19.10;99.90
33955;DHT22;20233;50.804;7.126;2022-10-31T15:25:20;19.10;99.90
33955;DHT22;20233;50.804;7.126;2022-10-31T15:27:48;19.10;99.90
33955;DHT22;20233;50.804;7.126;2022-10-31T15:30:19;19.10;99.90
33955;DHT22;20233;50.804;7.126;2022-10-31T15:32:46;19.00;99.90
33955;DHT22;20233;50.804;7.126;2022-10-31T15:35:23;19.00;99.90
33955;DHT22;20233;50.804;7.126;2022-10-31T15:37:51;19.00;99.90
33955;DHT22;20233;50.804;7.126;2022-10-31T15:40:19;19.00;99.90
33955;DHT22;20233;50.804;7.126;2022-10-31T15:43:04;18.90;99.90
33955;DHT22;20233;50.804;7.126;2022-10-31T15:45:30;18.80;99.90
33955;DHT22;20233;50.804;7.126;2022-10-31T15:48:02;18.80;99.90
33955;DHT22;20233;50.804;7.126;2022-10-31T15:50:38;18.70;99.90
33955;DHT22;20233;50.804;7.126;2022-10-31T15:53:16;18.60;99.90
33955;DHT22;20233;50.804;7.126;2022-10-31T15:56:12;18.40;99.90
33955;DHT22;20233;50.804;7.126;2022-10-31T15:58:44;18.40;99.90
33955;DHT22;20233;50.804;7.126;2022-10-31T16:06:37;18.30;99.90
33955;DHT22;20233;50.804;7.126;2022-10-31T16:09:03;18.30;99.90
33955;DHT22;20233;50.804;7.126;2022-10-31T16:16:41;18.10;99.90
33955;DHT22;20233;50.804;7.126;2022-10-31T16:19:31;18.10;99.90
33955;DHT22;20233;50.804;7.126;2022-10-31T16:22:08;18.00;99.90
33955;DHT22;20233;50.804;7.126;2022-10-31T16:24:49;18.00;99.90
33955;DHT22;20233;50.804;7.126;2022-10-31T16:27:24;18.00;99.90
33955;DHT22;20233;50.804;7.126;2022-10-31T16:29:55;17.90;99.90
33955;DHT22;20233;50.804;7.126;2022-10-31T16:35:16;17.80;99.90
33955;DHT22;20233;50.804;7.126;2022-10-31T16:37:42;17.70;99.90
33955;DHT22;20233;50.804;7.126;2022-10-31T16:40:12;17.70;99.90
33955;DHT22;20233;50.804;7.126;2022-10-31T16:42:39;17.70;99.90
33955;DHT22;20233;50.804;7.126;2022-10-31T16:45:18;17.70;99.90
33955;DHT22;20233;50.804;7.126;2022-10-31T16:47:44;17.70;99.90
33955;DHT22;20233;50.804;7.126;2022-10-31T16:50:18;17.70;99.90
33955;DHT22;20233;50.804;7.126;2022-10-31T16:52:44;17.80;99.90
33955;DHT22;20233;50.804;7.126;2022-10-31T16:55:12;17.70;99.90
33955;DHT22;20233;50.804;7.126;2022-10-31T16:57:40;17.70;99.90
33955;DHT22;20233;50.804;7.126;2022-10-31T17:00:12;17.80;99.90
33955;DHT22;20233;50.804;7.126;2022-10-31T17:02:38;17.60;99.90
33955;DHT22;20233;50.804;7.126;2022-10-31T17:05:04;17.50;99.90
33955;DHT22;20233;50.804;7.126;2022-10-31T17:07:29;17.50;99.90
33955;DHT22;20233;50.804;7.126;2022-10-31T17:09:55;17.50;99.90
33955;DHT22;20233;50.804;7.126;2022-10-31T17:12:22;17.60;99.90
33955;DHT22;20233;50.804;7.126;2022-10-31T17:14:50;17.50;99.90
33955;DHT22;20233;50.804;7.126;2022-10-31T17:17:17;17.50;99.90
33955;DHT22;20233;50.804;7.126;2022-10-31T17:19:42;17.40;99.90
33955;DHT22;20233;50.804;7.126;2022-10-31T17:22:10;17.40;99.90
33955;DHT22;20233;50.804;7.126;2022-10-31T17:24:36;17.40;99.90
33955;DHT22;20233;50.804;7.126;2022-10-31T17:27:02;17.40;99.90
33955;DHT22;20233;50.804;7.126;2022-10-31T17:29:28;17.40;99.90
33955;DHT22;20233;50.804;7.126;2022-10-31T17:31:53;17.40;99.90
33955;DHT22;20233;50.804;7.126;2022-10-31T17:34:19;17.40;99.90
33955;DHT22;20233;50.804;7.126;2022-10-31T17:36:49;17.40;99.90
33955;DHT22;20233;50.804;7.126;2022-10-31T17:39:15;17.40;99.90
33955;DHT22;20233;50.804;7.126;2022-10-31T17:41:41;17.40;99.90
33955;DHT22;20233;50.804;7.126;2022-10-31T17:44:09;17.20;99.90
33955;DHT22;20233;50.804;7.126;2022-10-31T17:46:35;17.20;99.90
33955;DHT22;20233;50.804;7.126;2022-10-31T17:49:01;17.10;99.90
33955;DHT22;20233;50.804;7.126;2022-10-31T17:51:27;17.10;99.90
33955;DHT22;20233;50.804;7.126;2022-10-31T17:53:53;17.10;99.90
33955;DHT22;20233;50.804;7.126;2022-10-31T17:56:18;17.10;99.90
33955;DHT22;20233;50.804;7.126;2022-10-31T17:58:44;17.10;99.90
33955;DHT22;20233;50.804;7.126;2022-10-31T18:01:12;17.00;99.90
33955;DHT22;20233;50.804;7.126;2022-10-31T18:03:38;16.90;99.90
33955;DHT22;20233;50.804;7.126;2022-10-31T18:06:04;16.80;99.90
33955;DHT22;20233;50.804;7.126;2022-10-31T18:08:33;16.90;99.90
33955;DHT22;20233;50.804;7.126;2022-10-31T18:10:59;16.90;99.90
33955;DHT22;20233;50.804;7.126;2022-10-31T18:13:26;16.90;99.90